createdAt,value
2019-02-05T00:02:08.812Z,111.07
2019-02-05T00:04:35.552Z,113.40
2019-02-05T00:07:02.288Z,106.20
2019-02-05T00:09:29.064Z,111.43
2019-02-05T00:11:55.796Z,93.03
2019-02-05T00:14:22.814Z,87.77
2019-02-05T00:16:49.565Z,84.33
2019-02-05T00:19:16.268Z,83.77
2019-02-05T00:21:42.991Z,91.50
2019-02-05T00:24:09.845Z,101.50
2019-02-05T00:26:36.535Z,92.47
2019-02-05T00:29:03.266Z,91.47
2019-02-05T00:31:30.142Z,99.73
2019-02-05T00:33:56.841Z,87.67
2019-02-05T00:36:23.552Z,115.83
2019-02-05T00:38:50.325Z,107.53
2019-02-05T00:41:17.108Z,93.53
2019-02-05T00:43:44.020Z,97.63
2019-02-05T00:46:10.761Z,113.03
2019-02-05T00:48:37.519Z,123.10
2019-02-05T00:51:04.504Z,138.23
2019-02-05T00:53:31.336Z,141.03
2019-02-05T00:55:58.042Z,124.03
2019-02-05T00:58:24.745Z,131.93
2019-02-05T01:00:51.491Z,128.23
2019-02-05T01:03:18.184Z,132.97
2019-02-05T01:05:44.928Z,100.47
2019-02-05T01:08:11.655Z,86.20
2019-02-05T01:10:38.573Z,87.33
2019-02-05T01:13:05.270Z,81.03
2019-02-05T01:15:32.137Z,82.80
2019-02-05T01:17:58.874Z,76.87
2019-02-05T01:20:25.589Z,80.83
2019-02-05T01:22:52.482Z,86.73
2019-02-05T01:25:19.787Z,86.43
2019-02-05T01:27:46.940Z,81.67
2019-02-05T01:30:19.362Z,80.57
2019-02-05T01:32:46.106Z,79.83
2019-02-05T01:35:12.870Z,82.10
2019-02-05T01:37:39.684Z,83.43
2019-02-05T01:40:10.047Z,79.37
2019-02-05T01:42:36.854Z,77.13
2019-02-05T01:45:06.346Z,70.30
2019-02-05T01:47:33.089Z,69.07
2019-02-05T01:49:59.787Z,63.60
2019-02-05T01:52:26.520Z,71.23
2019-02-05T01:54:53.201Z,73.50
2019-02-05T01:57:19.917Z,51.10
2019-02-05T01:59:46.697Z,53.80
2019-02-05T02:02:13.746Z,54.17
2019-02-05T02:04:40.535Z,56.30
2019-02-05T02:07:07.697Z,76.90
2019-02-05T02:09:34.369Z,100.33
2019-02-05T02:12:01.055Z,104.33
2019-02-05T02:14:27.791Z,113.67
2019-02-05T02:16:54.491Z,103.93
2019-02-05T02:19:21.190Z,114.13
2019-02-05T02:21:48.178Z,108.23
2019-02-05T02:24:14.918Z,105.47
2019-02-05T02:26:51.617Z,98.07
2019-02-05T02:29:10.160Z,94.10
2019-02-05T02:31:36.889Z,102.60
2019-02-05T02:34:03.647Z,87.33
2019-02-05T02:36:30.471Z,116.17
2019-02-05T02:38:57.434Z,111.20
2019-02-05T02:41:24.140Z,118.70
2019-02-05T02:43:51.834Z,109.73
2019-02-05T02:46:18.564Z,103.93
2019-02-05T02:48:45.248Z,105.77
2019-02-05T02:51:12.018Z,99.90
2019-02-05T02:53:38.735Z,98.23
2019-02-05T02:56:05.427Z,101.57
2019-02-05T02:58:32.461Z,96.43
2019-02-05T03:00:59.165Z,87.27
2019-02-05T03:03:25.854Z,75.63
2019-02-05T03:05:52.620Z,73.03
2019-02-05T03:08:19.447Z,74.27
2019-02-05T03:10:46.151Z,68.43
2019-02-05T03:13:12.915Z,69.53
2019-02-05T03:15:39.614Z,71.70
2019-02-05T03:18:06.307Z,69.07
2019-02-05T03:20:33.354Z,68.93
2019-02-05T03:23:00.041Z,61.27
2019-02-05T03:25:26.732Z,66.77
2019-02-05T03:27:54.291Z,63.37
2019-02-05T03:30:22.628Z,68.57
2019-02-05T03:32:49.440Z,66.70
2019-02-05T03:35:16.290Z,75.70
2019-02-05T03:37:42.998Z,77.63
2019-02-05T03:40:28.356Z,66.90
2019-02-05T03:42:55.063Z,45.47
2019-02-05T03:45:23.210Z,45.40
2019-02-05T03:47:51.188Z,39.77
2019-02-05T03:50:17.919Z,41.77
2019-02-05T03:52:47.637Z,30.07
2019-02-05T03:55:30.203Z,32.30
2019-02-05T03:58:18.961Z,30.10
2019-02-05T04:00:58.462Z,28.57
2019-02-05T04:03:49.951Z,31.07
2019-02-05T04:06:26.535Z,25.90
2019-02-05T04:09:14.994Z,25.60
2019-02-05T04:11:48.127Z,24.20
2019-02-05T04:14:51.864Z,22.50
2019-02-05T04:17:22.214Z,41.40
2019-02-05T04:19:55.282Z,55.90
2019-02-05T04:22:42.236Z,58.37
2019-02-05T04:25:15.484Z,51.20
2019-02-05T04:27:47.423Z,56.00
2019-02-05T04:30:42.397Z,50.87
2019-02-05T04:33:19.056Z,25.77
2019-02-05T04:35:52.369Z,22.37
2019-02-05T04:38:37.589Z,24.87
2019-02-05T04:41:33.797Z,24.40
2019-02-05T04:44:28.691Z,22.87
2019-02-05T04:47:14.328Z,25.13
2019-02-05T04:49:53.704Z,25.27
2019-02-05T04:52:42.480Z,23.83
2019-02-05T04:55:25.249Z,23.33
2019-02-05T04:58:14.123Z,31.63
2019-02-05T05:00:56.173Z,33.40
2019-02-05T05:03:44.730Z,37.40
2019-02-05T05:06:24.419Z,33.80
2019-02-05T05:09:13.759Z,30.80
2019-02-05T05:11:41.245Z,32.63
2019-02-05T05:14:07.976Z,33.13
2019-02-05T05:16:34.658Z,31.13
2019-02-05T05:19:01.632Z,30.40
2019-02-05T05:21:28.346Z,36.23
2019-02-05T05:23:55.540Z,40.50
2019-02-05T05:26:22.298Z,47.30
2019-02-05T05:28:49.018Z,41.50
2019-02-05T05:31:15.766Z,42.63
2019-02-05T05:33:42.564Z,46.53
2019-02-05T05:36:09.264Z,45.83
2019-02-05T05:38:35.964Z,65.60
2019-02-05T05:41:02.734Z,127.27
2019-02-05T05:43:29.437Z,184.37
2019-02-05T05:45:56.275Z,134.97
2019-02-05T05:48:24.096Z,95.67
2019-02-05T05:50:50.817Z,90.30
2019-02-05T05:53:17.569Z,70.27
2019-02-05T05:55:44.345Z,67.13
2019-02-05T05:58:21.946Z,44.73
2019-02-05T06:00:39.568Z,37.57
2019-02-05T06:03:06.892Z,42.80
2019-02-05T06:05:54.400Z,45.07
2019-02-05T06:08:22.179Z,52.87
2019-02-05T06:10:48.893Z,55.30
2019-02-05T06:13:15.580Z,51.13
2019-02-05T06:15:42.368Z,49.13
2019-02-05T06:18:09.087Z,48.77
2019-02-05T06:20:35.828Z,40.50
2019-02-05T06:23:02.560Z,46.90
2019-02-05T06:25:29.298Z,47.87
2019-02-05T06:27:56.008Z,50.67
2019-02-05T06:30:22.774Z,53.27
2019-02-05T06:32:49.592Z,44.30
2019-02-05T06:35:16.333Z,40.77
2019-02-05T06:37:43.113Z,48.00
2019-02-05T06:40:18.551Z,52.10
2019-02-05T06:42:45.306Z,60.87
2019-02-05T06:45:13.731Z,55.93
2019-02-05T06:47:40.447Z,54.93
2019-02-05T06:50:10.106Z,57.33
2019-02-05T06:52:36.812Z,61.40
2019-02-05T06:55:05.924Z,64.00
2019-02-05T06:57:32.746Z,84.50
2019-02-05T06:59:59.470Z,89.07
2019-02-05T07:02:26.197Z,79.53
2019-02-05T07:05:03.247Z,76.10
2019-02-05T07:07:30.485Z,72.70
2019-02-05T07:10:06.433Z,62.63
2019-02-05T07:12:34.410Z,78.00
2019-02-05T07:15:01.115Z,89.37
2019-02-05T07:17:28.042Z,105.43
2019-02-05T07:19:54.781Z,68.17
2019-02-05T07:22:21.513Z,65.30
2019-02-05T07:24:48.235Z,74.00
2019-02-05T07:27:14.969Z,65.00
2019-02-05T07:29:41.682Z,63.67
2019-02-05T07:32:08.828Z,57.23
2019-02-05T07:34:35.557Z,66.60
2019-02-05T07:37:02.268Z,67.30
2019-02-05T07:39:29.037Z,65.77
2019-02-05T07:41:55.759Z,60.93
2019-02-05T07:44:22.466Z,67.63
2019-02-05T07:46:49.191Z,68.80
2019-02-05T07:49:15.984Z,61.60
2019-02-05T07:51:42.840Z,59.50
2019-02-05T07:54:09.631Z,55.17
2019-02-05T07:56:36.582Z,49.40
2019-02-05T07:59:10.412Z,51.37
2019-02-05T08:01:32.497Z,49.17
2019-02-05T08:04:00.139Z,51.63
2019-02-05T08:06:27.714Z,52.97
2019-02-05T08:08:54.712Z,42.90
2019-02-05T08:11:22.090Z,51.87
2019-02-05T08:13:49.600Z,58.87
2019-02-05T08:16:16.745Z,59.47
2019-02-05T08:18:44.207Z,59.30
2019-02-05T08:21:10.979Z,61.53
2019-02-05T08:23:37.791Z,68.00
2019-02-05T08:26:04.498Z,65.07
2019-02-05T08:28:40.644Z,62.60
2019-02-05T08:30:59.757Z,61.57
2019-02-05T08:33:26.467Z,60.87
2019-02-05T08:35:53.337Z,60.17
2019-02-05T08:38:20.077Z,59.97
2019-02-05T08:40:47.066Z,61.63
2019-02-05T08:43:13.886Z,62.13
2019-02-05T08:45:40.799Z,72.53
2019-02-05T08:48:10.384Z,68.40
2019-02-05T08:50:39.131Z,69.00
2019-02-05T08:53:06.942Z,64.03
2019-02-05T08:55:34.670Z,58.23
2019-02-05T08:58:09.590Z,55.60
2019-02-05T09:00:37.899Z,54.37
2019-02-05T09:03:05.622Z,56.20
2019-02-05T09:05:34.239Z,49.60
2019-02-05T09:08:01.214Z,46.63
2019-02-05T09:10:33.760Z,48.37
2019-02-05T09:13:00.478Z,48.60
2019-02-05T09:15:29.657Z,49.27
2019-02-05T09:17:57.208Z,50.10
2019-02-05T09:20:23.958Z,50.13
2019-02-05T09:22:50.654Z,48.13
2019-02-05T09:25:18.268Z,52.60
2019-02-05T09:27:45.238Z,51.03
2019-02-05T09:30:25.429Z,53.40
2019-02-05T09:32:56.136Z,53.30
2019-02-05T09:35:24.947Z,51.57
2019-02-05T09:37:52.939Z,48.43
2019-02-05T09:40:26.104Z,44.53
2019-02-05T09:42:53.140Z,45.90
2019-02-05T09:45:20.002Z,55.40
2019-02-05T09:47:46.787Z,66.00
2019-02-05T09:50:16.085Z,60.07
2019-02-05T09:52:42.795Z,48.67
2019-02-05T09:55:15.908Z,46.43
2019-02-05T09:57:42.616Z,44.57
2019-02-05T10:00:26.800Z,45.60
2019-02-05T10:02:53.888Z,47.50
2019-02-05T10:05:25.243Z,45.57
2019-02-05T10:07:52.020Z,49.77
2019-02-05T10:10:20.263Z,50.20
2019-02-05T10:12:47.193Z,48.70
2019-02-05T10:15:16.413Z,51.43
2019-02-05T10:17:43.186Z,57.97
2019-02-05T10:20:11.021Z,51.20
2019-02-05T10:22:38.077Z,56.23
2019-02-05T10:25:09.887Z,53.87
2019-02-05T10:27:36.645Z,54.63
2019-02-05T10:30:12.729Z,55.83
2019-02-05T10:32:39.638Z,54.20
2019-02-05T10:35:07.759Z,51.13
2019-02-05T10:37:35.331Z,55.83
2019-02-05T10:40:02.127Z,57.07
2019-02-05T10:42:28.840Z,57.00
2019-02-05T10:44:55.636Z,57.63
2019-02-05T10:47:22.376Z,52.90
2019-02-05T10:49:49.193Z,54.20
2019-02-05T10:52:16.061Z,53.63
2019-02-05T10:54:42.835Z,51.10
2019-02-05T10:57:09.728Z,49.07
2019-02-05T10:59:36.771Z,47.67
2019-02-05T11:02:03.487Z,48.80
2019-02-05T11:04:30.218Z,49.97
2019-02-05T11:06:57.067Z,41.10
2019-02-05T11:09:24.607Z,44.97
2019-02-05T11:11:51.528Z,50.20
2019-02-05T11:14:18.929Z,51.83
2019-02-05T11:16:45.629Z,43.80
2019-02-05T11:19:15.099Z,45.77
2019-02-05T11:21:42.146Z,44.53
2019-02-05T11:24:09.969Z,43.17
2019-02-05T11:26:39.738Z,45.53
2019-02-05T11:29:08.424Z,43.17
2019-02-05T11:31:35.139Z,43.77
2019-02-05T11:34:02.155Z,41.07
2019-02-05T11:36:52.055Z,40.77
2019-02-05T11:39:18.645Z,43.50
2019-02-05T11:41:45.342Z,43.67
2019-02-05T11:44:12.099Z,44.23
2019-02-05T11:46:38.828Z,43.97
2019-02-05T11:49:05.512Z,45.13
2019-02-05T11:51:32.953Z,46.33
2019-02-05T11:53:59.962Z,47.10
2019-02-05T11:56:26.812Z,47.67
2019-02-05T11:58:54.266Z,45.73
2019-02-05T12:01:21.058Z,46.40
2019-02-05T12:03:47.771Z,47.67
2019-02-05T12:06:14.829Z,48.70
2019-02-05T12:08:41.910Z,49.83
2019-02-05T12:11:08.945Z,48.63
2019-02-05T12:13:37.107Z,50.53
2019-02-05T12:16:04.096Z,49.03
2019-02-05T12:18:30.927Z,53.33
2019-02-05T12:20:57.684Z,49.43
2019-02-05T12:23:27.347Z,50.33
2019-02-05T12:25:54.114Z,50.93
2019-02-05T12:28:21.304Z,52.57
2019-02-05T12:30:47.996Z,54.07
2019-02-05T12:33:14.683Z,57.37
2019-02-05T12:35:41.948Z,54.57
2019-02-05T12:38:08.645Z,57.17
2019-02-05T12:40:35.330Z,56.87
2019-02-05T12:43:02.104Z,53.47
2019-02-05T12:45:30.891Z,49.43
2019-02-05T12:47:57.597Z,52.17
2019-02-05T12:50:27.342Z,51.33
2019-02-05T12:52:54.127Z,52.57
2019-02-05T12:55:21.224Z,54.53
2019-02-05T12:57:47.961Z,55.07
2019-02-05T13:00:23.786Z,52.60
2019-02-05T13:02:50.589Z,53.73
2019-02-05T13:05:17.396Z,53.20
2019-02-05T13:07:44.107Z,55.97
2019-02-05T13:10:14.483Z,54.47
2019-02-05T13:12:41.226Z,51.83
2019-02-05T13:15:09.747Z,53.70
2019-02-05T13:17:36.557Z,53.60
2019-02-05T13:20:06.886Z,51.77
2019-02-05T13:22:33.611Z,53.50
2019-02-05T13:25:00.450Z,55.13
2019-02-05T13:27:27.466Z,58.07
2019-02-05T13:29:54.182Z,59.67
2019-02-05T13:32:20.942Z,61.07
2019-02-05T13:34:47.674Z,55.13
2019-02-05T13:37:14.383Z,58.73
2019-02-05T13:39:41.970Z,59.00
2019-02-05T13:42:08.693Z,61.80
2019-02-05T13:44:35.464Z,65.60
2019-02-05T13:47:02.531Z,64.17
2019-02-05T13:49:29.302Z,64.27
2019-02-05T13:51:56.083Z,67.00
2019-02-05T13:54:22.896Z,61.27
2019-02-05T13:56:49.578Z,61.00
2019-02-05T13:59:16.277Z,61.87
2019-02-05T14:01:44.663Z,60.03
2019-02-05T14:04:11.644Z,60.57
2019-02-05T14:06:38.348Z,59.83
2019-02-05T14:09:10.645Z,58.23
2019-02-05T14:11:37.313Z,57.93
2019-02-05T14:14:04.055Z,60.17
2019-02-05T14:16:30.787Z,60.27
2019-02-05T14:18:57.484Z,60.97
2019-02-05T14:21:24.255Z,63.07
2019-02-05T14:23:51.394Z,63.77
2019-02-05T14:26:18.192Z,67.30
2019-02-05T14:28:44.899Z,65.37
2019-02-05T14:31:11.756Z,60.97
2019-02-05T14:33:38.454Z,64.47
2019-02-05T14:36:05.174Z,65.77
2019-02-05T14:38:31.923Z,67.00
2019-02-05T14:40:58.634Z,65.53
2019-02-05T14:43:25.752Z,59.10
2019-02-05T14:45:52.554Z,58.60
2019-02-05T14:48:19.247Z,49.13
2019-02-05T14:50:46.658Z,49.43
2019-02-05T14:53:13.446Z,50.40
2019-02-05T14:55:40.145Z,46.53
2019-02-05T14:58:08.630Z,40.27
2019-02-05T15:00:36.380Z,38.60
2019-02-05T15:03:05.861Z,36.37
2019-02-05T15:05:32.560Z,36.43
2019-02-05T15:07:59.361Z,39.50
2019-02-05T15:10:26.122Z,37.67
2019-02-05T15:12:52.822Z,37.30
2019-02-05T15:15:26.439Z,33.67
2019-02-05T15:17:53.164Z,33.80
2019-02-05T15:20:26.193Z,32.97
2019-02-05T15:22:53.120Z,31.93
2019-02-05T15:25:19.823Z,34.03
2019-02-05T15:27:46.532Z,32.47
2019-02-05T15:30:19.375Z,32.00
2019-02-05T15:33:04.837Z,29.73
2019-02-05T15:35:34.362Z,31.00
2019-02-05T15:38:01.114Z,31.63
2019-02-05T15:40:27.798Z,29.50
2019-02-05T15:42:54.559Z,29.50
2019-02-05T15:45:21.703Z,29.43
2019-02-05T15:47:48.511Z,32.37
2019-02-05T15:50:15.250Z,31.63
2019-02-05T15:52:41.968Z,29.03
2019-02-05T15:55:10.170Z,29.83
2019-02-05T15:57:36.978Z,35.43
2019-02-05T16:00:15.840Z,43.63
2019-02-05T16:02:42.576Z,30.53
2019-02-05T16:05:10.750Z,29.13
2019-02-05T16:07:38.395Z,28.93
2019-02-05T16:10:11.504Z,29.87
2019-02-05T16:12:38.346Z,29.97
2019-02-05T16:15:07.368Z,30.63
2019-02-05T16:17:34.558Z,25.63
2019-02-05T16:20:01.286Z,34.53
2019-02-05T16:22:27.953Z,56.70
2019-02-05T16:24:54.707Z,59.70
2019-02-05T16:27:21.511Z,34.30
2019-02-05T16:29:48.298Z,33.00
2019-02-05T16:32:17.593Z,29.67
2019-02-05T16:34:43.974Z,29.97
2019-02-05T16:37:10.737Z,29.67
2019-02-05T16:42:31.547Z,22.67
2019-02-05T16:44:58.262Z,25.83
2019-02-05T16:47:25.352Z,24.00
2019-02-05T16:49:52.246Z,20.87
2019-02-05T16:52:18.988Z,24.17
2019-02-05T16:54:45.775Z,26.53
2019-02-05T16:57:12.551Z,48.00
2019-02-05T16:59:39.494Z,21.67
2019-02-05T17:06:00.347Z,19.03
2019-02-05T17:08:27.204Z,20.47
2019-02-05T17:10:53.915Z,25.33
2019-02-05T17:13:20.629Z,30.57
2019-02-05T17:15:47.381Z,22.47
2019-02-05T17:18:23.371Z,25.50
2019-02-05T17:20:42.554Z,28.30
2019-02-05T17:23:09.451Z,28.83
2019-02-05T17:25:36.378Z,27.87
2019-02-05T17:28:05.639Z,33.93
2019-02-05T17:30:37.217Z,31.37
2019-02-05T17:33:04.141Z,29.17
2019-02-05T17:35:30.967Z,31.17
2019-02-05T17:37:57.728Z,29.20
2019-02-05T17:40:25.235Z,30.97
2019-02-05T17:42:53.891Z,27.90
2019-02-05T17:45:23.652Z,27.53
2019-02-05T17:47:50.491Z,27.03
2019-02-05T17:50:17.182Z,22.03
2019-02-05T17:52:43.939Z,22.40
2019-02-05T17:55:15.695Z,22.83
2019-02-05T17:57:42.419Z,17.67
2019-02-05T18:00:29.242Z,31.40
2019-02-05T18:02:55.943Z,23.70
2019-02-05T18:05:25.243Z,18.57
2019-02-05T18:07:54.973Z,22.10
2019-02-05T18:10:24.420Z,31.33
2019-02-05T18:13:18.554Z,32.63
2019-02-05T18:15:45.273Z,19.73
2019-02-05T18:18:12.456Z,35.73
2019-02-05T18:20:39.155Z,20.60
2019-02-05T18:23:05.870Z,22.60
2019-02-05T18:29:20.099Z,26.93
2019-02-05T18:31:46.002Z,28.53
2019-02-05T18:34:14.798Z,25.20
2019-02-05T18:36:41.205Z,23.33
2019-02-05T18:39:08.078Z,24.70
2019-02-05T18:41:34.754Z,21.03
2019-02-05T18:44:01.470Z,21.13
2019-02-05T18:46:28.227Z,20.53
2019-02-05T18:49:04.622Z,22.20
2019-02-05T18:51:23.446Z,21.93
2019-02-05T18:53:50.603Z,24.70
2019-02-05T18:56:17.284Z,26.67
2019-02-05T18:58:44.003Z,25.37
2019-02-05T19:01:10.802Z,26.43
2019-02-05T19:03:37.492Z,29.67
2019-02-05T19:06:04.201Z,26.73
2019-02-05T19:08:31.202Z,26.23
2019-02-05T19:10:57.898Z,34.37
2019-02-05T19:13:24.923Z,25.97
2019-02-05T19:15:51.666Z,25.00
2019-02-05T19:18:18.352Z,22.40
2019-02-05T19:20:45.053Z,22.93
2019-02-05T19:23:11.876Z,24.33
2019-02-05T19:25:55.704Z,24.57
2019-02-05T19:28:24.686Z,24.33
2019-02-05T19:30:53.220Z,21.80
2019-02-05T19:33:27.074Z,22.93
2019-02-05T19:35:48.468Z,25.30
2019-02-05T19:38:15.179Z,24.93
2019-02-05T19:40:41.872Z,26.27
2019-02-05T19:43:08.761Z,28.00
2019-02-05T19:45:43.398Z,31.87
2019-02-05T19:48:12.085Z,30.97
2019-02-05T19:50:38.892Z,30.90
2019-02-05T19:53:05.694Z,27.90
2019-02-05T19:55:32.446Z,28.03
2019-02-05T19:57:59.139Z,30.87
2019-02-05T20:00:25.809Z,29.03
2019-02-05T20:02:55.406Z,27.60
2019-02-05T20:05:21.094Z,25.50
2019-02-05T20:07:48.262Z,22.90
2019-02-05T20:10:16.295Z,21.97
2019-02-05T20:12:43.005Z,18.30
2019-02-05T20:15:14.618Z,19.17
2019-02-05T20:17:41.395Z,19.27
2019-02-05T20:20:18.459Z,20.57
2019-02-05T20:22:45.549Z,19.37
2019-02-05T20:25:14.871Z,20.37
2019-02-05T20:27:41.593Z,19.40
2019-02-05T20:30:14.898Z,20.07
2019-02-05T20:32:41.591Z,20.30
2019-02-05T20:35:08.285Z,24.07
2019-02-05T20:37:35.087Z,25.20
2019-02-05T20:40:01.812Z,27.53
2019-02-05T20:42:28.909Z,28.50
2019-02-05T20:44:55.868Z,28.30
2019-02-05T20:47:22.547Z,27.90
2019-02-05T20:49:49.264Z,32.90
2019-02-05T20:52:16.029Z,29.27
2019-02-05T20:54:42.736Z,29.57
2019-02-05T20:57:09.448Z,31.77
2019-02-05T20:59:36.215Z,35.50
2019-02-05T21:02:02.915Z,38.80
2019-02-05T21:04:30.082Z,55.50
2019-02-05T21:07:01.648Z,58.67
2019-02-05T21:09:30.196Z,54.13
2019-02-05T21:11:57.820Z,55.53
2019-02-05T21:14:24.575Z,54.17
2019-02-05T21:16:52.312Z,61.07
2019-02-05T21:19:18.988Z,65.70
2019-02-05T21:21:46.154Z,72.03
2019-02-05T21:24:12.892Z,72.73
2019-02-05T21:26:39.566Z,73.10
2019-02-05T21:29:10.052Z,86.43
2019-02-05T21:31:36.780Z,97.37
2019-02-05T21:34:14.924Z,75.77
2019-02-05T21:36:36.725Z,81.90
2019-02-05T21:39:06.817Z,97.77
2019-02-05T21:41:33.510Z,70.17
2019-02-05T21:44:00.247Z,56.43
2019-02-05T21:46:26.970Z,52.60
2019-02-05T21:48:53.693Z,52.43
2019-02-05T21:51:20.597Z,59.87
2019-02-05T21:53:47.294Z,59.77
2019-02-05T21:56:13.980Z,56.93
2019-02-05T21:58:40.722Z,60.63
2019-02-05T22:01:14.337Z,64.93
2019-02-05T22:03:47.195Z,80.83
2019-02-05T22:06:20.897Z,85.57
2019-02-05T22:08:47.924Z,87.17
2019-02-05T22:11:14.670Z,88.83
2019-02-05T22:13:41.440Z,75.57
2019-02-05T22:16:08.360Z,70.53
2019-02-05T22:18:35.158Z,65.63
2019-02-05T22:21:02.357Z,72.10
2019-02-05T22:23:29.603Z,72.97
2019-02-05T22:25:56.294Z,78.57
2019-02-05T22:28:22.997Z,75.50
2019-02-05T22:30:50.391Z,83.47
2019-02-05T22:33:17.071Z,65.00
2019-02-05T22:35:43.759Z,59.33
2019-02-05T22:38:13.581Z,55.27
2019-02-05T22:40:40.246Z,56.60
2019-02-05T22:43:07.363Z,56.90
2019-02-05T22:45:34.094Z,54.60
2019-02-05T22:48:00.803Z,52.67
2019-02-05T22:50:34.131Z,53.90
2019-02-05T22:53:03.178Z,52.67
2019-02-05T22:55:29.895Z,53.10
2019-02-05T22:57:56.571Z,53.40
2019-02-05T23:00:49.469Z,53.63
2019-02-05T23:03:19.502Z,50.30
2019-02-05T23:06:08.253Z,53.23
2019-02-05T23:08:34.930Z,48.43
2019-02-05T23:11:11.459Z,52.00
2019-02-05T23:13:38.137Z,51.33
2019-02-05T23:16:05.739Z,53.40
2019-02-05T23:18:32.513Z,50.90
2019-02-05T23:20:59.232Z,50.90
2019-02-05T23:23:25.934Z,51.23
2019-02-05T23:25:52.662Z,45.40
2019-02-05T23:28:19.418Z,48.60
2019-02-05T23:30:46.274Z,50.67
2019-02-05T23:33:13.072Z,51.40
2019-02-05T23:35:39.731Z,45.50
2019-02-05T23:38:06.438Z,39.83
2019-02-05T23:40:33.222Z,41.73
2019-02-05T23:43:00.013Z,39.50
2019-02-05T23:45:26.727Z,38.90
2019-02-05T23:47:53.487Z,43.97
2019-02-05T23:50:20.668Z,42.90
2019-02-05T23:52:47.371Z,43.03
2019-02-05T23:55:14.154Z,42.00
2019-02-05T23:57:40.832Z,39.10
